sensor_id;sensor_type;location;lat;lon;timestamp;pressure;altitude;pressure_sealevel;temperature;humidity
20825;BME280;10573;50.936;6.978;2023-05-16T00:01:06;101204.78;;;13.40;72.51
20825;BME280;10573;50.936;6.978;2023-05-16T00:03:33;101210.66;;;13.45;72.77
20825;BME280;10573;50.936;6.978;2023-05-16T00:05:58;101204.41;;;13.25;73.19
20825;BME280;10573;50.936;6.978;2023-05-16T00:08:26;101218.09;;;13.25;73.67
20825;BME280;10573;50.936;6.978;2023-05-16T00:10:52;101210.84;;;13.34;73.62
20825;BME280;10573;50.936;6.978;2023-05-16T00:13:17;101221.97;;;13.32;74.05
20825;BME280;10573;50.936;6.978;2023-05-16T00:15:46;101211.56;;;13.08;75.41
20825;BME280;10573;50.936;6.978;2023-05-16T00:18:11;101206.88;;;13.28;74.95
20825;BME280;10573;50.936;6.978;2023-05-16T00:20:40;101208.72;;;13.27;75.40
20825;BME280;10573;50.936;6.978;2023-05-16T00:23:05;101212.03;;;13.31;75.27
20825;BME280;10573;50.936;6.978;2023-05-16T00:25:31;101209.97;;;13.43;74.77
20825;BME280;10573;50.936;6.978;2023-05-16T00:27:56;101201.97;;;13.22;75.31
20825;BME280;10573;50.936;6.978;2023-05-16T00:30:21;101208.13;;;13.34;76.02
20825;BME280;10573;50.936;6.978;2023-05-16T00:32:47;101212.06;;;13.21;75.90
20825;BME280;10573;50.936;6.978;2023-05-16T00:35:12;101220.19;;;13.03;76.56
20825;BME280;10573;50.936;6.978;2023-05-16T00:37:37;101211.41;;;13.09;76.70
20825;BME280;10573;50.936;6.978;2023-05-16T00:40:03;101211.25;;;13.11;76.27
20825;BME280;10573;50.936;6.978;2023-05-16T00:42:29;101215.84;;;13.10;76.42
20825;BME280;10573;50.936;6.978;2023-05-16T00:44:56;101219.50;;;13.01;76.79
20825;BME280;10573;50.936;6.978;2023-05-16T00:47:21;101209.47;;;13.20;76.35
20825;BME280;10573;50.936;6.978;2023-05-16T00:49:47;101212.94;;;13.22;76.42
20825;BME280;10573;50.936;6.978;2023-05-16T00:52:12;101215.41;;;13.15;76.73
20825;BME280;10573;50.936;6.978;2023-05-16T00:54:37;101205.22;;;13.07;77.14
20825;BME280;10573;50.936;6.978;2023-05-16T00:57:03;101211.56;;;13.08;76.27
20825;BME280;10573;50.936;6.978;2023-05-16T00:59:29;101214.34;;;13.26;76.12
20825;BME280;10573;50.936;6.978;2023-05-16T01:01:54;101214.03;;;13.29;76.16
20825;BME280;10573;50.936;6.978;2023-05-16T01:04:20;101222.25;;;12.91;77.78
20825;BME280;10573;50.936;6.978;2023-05-16T01:06:45;101213.00;;;13.02;76.42
20825;BME280;10573;50.936;6.978;2023-05-16T01:09:10;101216.03;;;12.99;76.77
20825;BME280;10573;50.936;6.978;2023-05-16T01:19:13;101228.41;;;12.56;77.59
20825;BME280;10573;50.936;6.978;2023-05-16T01:21:48;101230.16;;;12.18;78.04
20825;BME280;10573;50.936;6.978;2023-05-16T01:24:26;101224.94;;;12.54;77.44
20825;BME280;10573;50.936;6.978;2023-05-16T01:26:58;101233.16;;;12.44;78.02
20825;BME280;10573;50.936;6.978;2023-05-16T01:29:24;101233.00;;;12.65;78.14
20825;BME280;10573;50.936;6.978;2023-05-16T01:31:49;101227.53;;;12.46;78.92
20825;BME280;10573;50.936;6.978;2023-05-16T01:34:15;101228.44;;;12.17;78.92
20825;BME280;10573;50.936;6.978;2023-05-16T01:36:47;101228.16;;;12.39;79.14
20825;BME280;10573;50.936;6.978;2023-05-16T01:39:19;101241.25;;;12.26;78.39
20825;BME280;10573;50.936;6.978;2023-05-16T01:41:48;101233.88;;;12.56;78.49
20825;BME280;10573;50.936;6.978;2023-05-16T01:44:23;101250.97;;;12.68;78.02
20825;BME280;10573;50.936;6.978;2023-05-16T01:46:51;101249.28;;;12.28;79.47
20825;BME280;10573;50.936;6.978;2023-05-16T01:49:24;101256.72;;;12.35;79.36
20825;BME280;10573;50.936;6.978;2023-05-16T01:51:51;101251.69;;;12.40;78.17
20825;BME280;10573;50.936;6.978;2023-05-16T01:54:18;101257.03;;;12.32;78.22
20825;BME280;10573;50.936;6.978;2023-05-16T01:56:53;101249.41;;;12.36;77.49
20825;BME280;10573;50.936;6.978;2023-05-16T01:59:20;101257.13;;;11.82;79.09
20825;BME280;10573;50.936;6.978;2023-05-16T02:01:46;101261.34;;;12.05;79.37
20825;BME280;10573;50.936;6.978;2023-05-16T02:04:12;101264.94;;;12.25;78.70
20825;BME280;10573;50.936;6.978;2023-05-16T02:06:39;101266.38;;;12.20;78.56
20825;BME280;10573;50.936;6.978;2023-05-16T02:09:05;101273.13;;;12.25;78.46
20825;BME280;10573;50.936;6.978;2023-05-16T02:11:30;101267.81;;;12.24;77.80
20825;BME280;10573;50.936;6.978;2023-05-16T02:13:55;101275.50;;;11.80;78.48
20825;BME280;10573;50.936;6.978;2023-05-16T02:16:21;101277.56;;;12.07;77.96
20825;BME280;10573;50.936;6.978;2023-05-16T02:18:46;101272.94;;;11.88;78.79
20825;BME280;10573;50.936;6.978;2023-05-16T02:21:12;101283.94;;;11.67;78.81
20825;BME280;10573;50.936;6.978;2023-05-16T02:23:37;101287.63;;;11.56;78.89
20825;BME280;10573;50.936;6.978;2023-05-16T02:26:03;101290.44;;;11.75;78.71
20825;BME280;10573;50.936;6.978;2023-05-16T02:28:28;101290.41;;;11.66;78.40
20825;BME280;10573;50.936;6.978;2023-05-16T02:30:59;101300.31;;;11.67;78.11
20825;BME280;10573;50.936;6.978;2023-05-16T02:33:25;101298.34;;;11.38;78.91
20825;BME280;10573;50.936;6.978;2023-05-16T02:35:51;101317.09;;;11.00;78.82
20825;BME280;10573;50.936;6.978;2023-05-16T02:38:17;101317.06;;;10.90;79.68
20825;BME280;10573;50.936;6.978;2023-05-16T02:40:44;101305.06;;;10.82;79.21
20825;BME280;10573;50.936;6.978;2023-05-16T02:43:10;101311.88;;;10.66;79.87
20825;BME280;10573;50.936;6.978;2023-05-16T02:45:35;101312.78;;;10.77;79.52
20825;BME280;10573;50.936;6.978;2023-05-16T02:48:00;101323.16;;;11.04;79.06
20825;BME280;10573;50.936;6.978;2023-05-16T02:50:26;101335.84;;;10.72;79.44
20825;BME280;10573;50.936;6.978;2023-05-16T02:52:51;101336.53;;;10.86;79.24
20825;BME280;10573;50.936;6.978;2023-05-16T02:55:16;101341.09;;;11.06;79.36
20825;BME280;10573;50.936;6.978;2023-05-16T02:57:42;101346.03;;;10.70;79.75
20825;BME280;10573;50.936;6.978;2023-05-16T03:00:07;101337.91;;;10.80;79.02
20825;BME280;10573;50.936;6.978;2023-05-16T03:02:35;101331.84;;;10.77;77.73
20825;BME280;10573;50.936;6.978;2023-05-16T03:05:00;101347.81;;;11.02;77.36
20825;BME280;10573;50.936;6.978;2023-05-16T03:07:26;101349.06;;;10.98;77.20
20825;BME280;10573;50.936;6.978;2023-05-16T03:09:52;101349.88;;;11.10;76.65
20825;BME280;10573;50.936;6.978;2023-05-16T03:12:17;101353.72;;;11.07;77.02
20825;BME280;10573;50.936;6.978;2023-05-16T03:14:42;101351.00;;;11.07;76.99
20825;BME280;10573;50.936;6.978;2023-05-16T03:17:08;101357.50;;;10.74;77.83
20825;BME280;10573;50.936;6.978;2023-05-16T03:19:33;101357.66;;;10.72;77.82
20825;BME280;10573;50.936;6.978;2023-05-16T03:21:59;101368.03;;;10.79;77.86
20825;BME280;10573;50.936;6.978;2023-05-16T03:24:24;101358.78;;;10.91;77.42
20825;BME280;10573;50.936;6.978;2023-05-16T03:26:50;101364.91;;;10.83;77.44
20825;BME280;10573;50.936;6.978;2023-05-16T03:29:16;101356.19;;;10.68;77.54
20825;BME280;10573;50.936;6.978;2023-05-16T03:31:41;101368.69;;;10.71;76.79
20825;BME280;10573;50.936;6.978;2023-05-16T03:34:06;101364.66;;;10.54;77.08
20825;BME280;10573;50.936;6.978;2023-05-16T03:36:32;101367.69;;;10.72;76.89
20825;BME280;10573;50.936;6.978;2023-05-16T03:38:57;101366.59;;;10.63;77.28
20825;BME280;10573;50.936;6.978;2023-05-16T03:41:22;101373.31;;;10.59;76.38
20825;BME280;10573;50.936;6.978;2023-05-16T03:43:48;101377.59;;;10.94;75.37
20825;BME280;10573;50.936;6.978;2023-05-16T03:46:13;101378.81;;;11.01;75.26
20825;BME280;10573;50.936;6.978;2023-05-16T03:48:39;101383.22;;;10.60;76.07
20825;BME280;10573;50.936;6.978;2023-05-16T03:51:04;101386.00;;;10.81;74.92
20825;BME280;10573;50.936;6.978;2023-05-16T03:53:29;101383.16;;;10.71;75.18
20825;BME280;10573;50.936;6.978;2023-05-16T03:55:55;101390.16;;;10.64;75.54
20825;BME280;10573;50.936;6.978;2023-05-16T03:58:20;101401.13;;;10.41;75.11
20825;BME280;10573;50.936;6.978;2023-05-16T04:00:45;101397.56;;;10.62;73.80
20825;BME280;10573;50.936;6.978;2023-05-16T04:03:11;101404.53;;;10.55;74.40
20825;BME280;10573;50.936;6.978;2023-05-16T04:05:36;101407.16;;;10.34;73.83
20825;BME280;10573;50.936;6.978;2023-05-16T04:08:01;101409.22;;;10.64;73.22
20825;BME280;10573;50.936;6.978;2023-05-16T04:10:27;101404.19;;;10.48;73.46
20825;BME280;10573;50.936;6.978;2023-05-16T04:12:52;101409.84;;;10.68;71.72
20825;BME280;10573;50.936;6.978;2023-05-16T04:15:17;101419.47;;;10.17;72.85
20825;BME280;10573;50.936;6.978;2023-05-16T04:17:43;101417.47;;;10.74;71.00
20825;BME280;10573;50.936;6.978;2023-05-16T04:20:08;101425.75;;;10.84;71.80
20825;BME280;10573;50.936;6.978;2023-05-16T04:22:34;101434.28;;;10.47;72.05
20825;BME280;10573;50.936;6.978;2023-05-16T04:24:59;101426.53;;;10.74;71.92
20825;BME280;10573;50.936;6.978;2023-05-16T04:27:25;101427.31;;;10.65;71.49
20825;BME280;10573;50.936;6.978;2023-05-16T04:29:51;101428.69;;;10.92;71.89
20825;BME280;10573;50.936;6.978;2023-05-16T04:32:16;101437.09;;;10.89;70.89
20825;BME280;10573;50.936;6.978;2023-05-16T04:34:42;101436.81;;;11.03;70.24
20825;BME280;10573;50.936;6.978;2023-05-16T04:37:08;101443.78;;;10.64;71.28
20825;BME280;10573;50.936;6.978;2023-05-16T04:39:33;101451.84;;;10.54;72.09
20825;BME280;10573;50.936;6.978;2023-05-16T04:41:59;101451.56;;;10.68;71.42
20825;BME280;10573;50.936;6.978;2023-05-16T04:44:25;101457.56;;;11.16;70.51
20825;BME280;10573;50.936;6.978;2023-05-16T04:46:51;101456.72;;;10.83;70.47
20825;BME280;10573;50.936;6.978;2023-05-16T04:49:17;101473.50;;;10.67;70.41
20825;BME280;10573;50.936;6.978;2023-05-16T04:51:42;101482.31;;;10.59;71.14
20825;BME280;10573;50.936;6.978;2023-05-16T04:54:08;101475.19;;;10.35;70.98
20825;BME280;10573;50.936;6.978;2023-05-16T04:56:34;101472.91;;;10.18;72.52
20825;BME280;10573;50.936;6.978;2023-05-16T04:59:00;101480.38;;;10.38;71.71
20825;BME280;10573;50.936;6.978;2023-05-16T05:01:25;101493.94;;;10.27;71.76
20825;BME280;10573;50.936;6.978;2023-05-16T05:03:51;101494.44;;;10.55;71.47
20825;BME280;10573;50.936;6.978;2023-05-16T05:06:16;101498.28;;;10.30;70.99
20825;BME280;10573;50.936;6.978;2023-05-16T05:08:41;101506.09;;;10.34;70.99
20825;BME280;10573;50.936;6.978;2023-05-16T05:11:07;101506.72;;;10.38;70.55
20825;BME280;10573;50.936;6.978;2023-05-16T05:13:32;101502.13;;;10.27;70.78
20825;BME280;10573;50.936;6.978;2023-05-16T05:15:57;101512.56;;;10.22;70.43
20825;BME280;10573;50.936;6.978;2023-05-16T05:18:23;101512.16;;;10.04;71.64
20825;BME280;10573;50.936;6.978;2023-05-16T05:20:48;101518.97;;;10.21;70.73
20825;BME280;10573;50.936;6.978;2023-05-16T05:23:14;101526.00;;;9.78;71.45
20825;BME280;10573;50.936;6.978;2023-05-16T05:25:39;101519.22;;;9.95;71.28
20825;BME280;10573;50.936;6.978;2023-05-16T05:28:05;101523.66;;;9.85;71.31
20825;BME280;10573;50.936;6.978;2023-05-16T05:30:30;101527.38;;;9.95;71.59
20825;BME280;10573;50.936;6.978;2023-05-16T05:32:56;101532.09;;;10.50;69.91
20825;BME280;10573;50.936;6.978;2023-05-16T05:35:21;101531.09;;;10.62;69.35
20825;BME280;10573;50.936;6.978;2023-05-16T05:37:46;101539.03;;;10.54;69.33
20825;BME280;10573;50.936;6.978;2023-05-16T05:40:12;101534.72;;;10.29;69.99
20825;BME280;10573;50.936;6.978;2023-05-16T05:42:37;101545.59;;;10.17;69.77
20825;BME280;10573;50.936;6.978;2023-05-16T05:45:03;101548.31;;;10.17;69.93
20825;BME280;10573;50.936;6.978;2023-05-16T05:47:29;101552.94;;;10.39;69.70
20825;BME280;10573;50.936;6.978;2023-05-16T05:49:54;101554.66;;;10.52;69.57
20825;BME280;10573;50.936;6.978;2023-05-16T05:52:20;101555.13;;;10.12;69.91
20825;BME280;10573;50.936;6.978;2023-05-16T05:54:46;101555.38;;;10.20;70.07
20825;BME280;10573;50.936;6.978;2023-05-16T05:57:11;101566.03;;;10.57;69.80
20825;BME280;10573;50.936;6.978;2023-05-16T05:59:37;101559.84;;;10.66;69.19
20825;BME280;10573;50.936;6.978;2023-05-16T06:02:02;101559.41;;;10.94;68.40
20825;BME280;10573;50.936;6.978;2023-05-16T06:04:27;101567.84;;;10.90;68.01
20825;BME280;10573;50.936;6.978;2023-05-16T06:06:53;101569.06;;;10.98;68.03
20825;BME280;10573;50.936;6.978;2023-05-16T06:09:19;101578.91;;;10.78;67.76
20825;BME280;10573;50.936;6.978;2023-05-16T06:11:45;101579.66;;;10.46;67.94
20825;BME280;10573;50.936;6.978;2023-05-16T06:14:10;101583.84;;;10.72;67.74
20825;BME280;10573;50.936;6.978;2023-05-16T06:16:36;101579.03;;;10.76;67.84
20825;BME280;10573;50.936;6.978;2023-05-16T06:19:03;101585.47;;;10.75;67.15
20825;BME280;10573;50.936;6.978;2023-05-16T06:21:28;101585.97;;;10.69;67.68
20825;BME280;10573;50.936;6.978;2023-05-16T06:23:53;101583.34;;;10.90;67.12
20825;BME280;10573;50.936;6.978;2023-05-16T06:26:19;101586.06;;;10.90;66.75
20825;BME280;10573;50.936;6.978;2023-05-16T06:28:44;101587.34;;;10.63;66.46
20825;BME280;10573;50.936;6.978;2023-05-16T06:31:09;101592.44;;;11.23;65.93
20825;BME280;10573;50.936;6.978;2023-05-16T06:33:35;101590.56;;;10.68;66.12
20825;BME280;10573;50.936;6.978;2023-05-16T06:36:00;101595.13;;;10.90;64.86
20825;BME280;10573;50.936;6.978;2023-05-16T06:38:25;101595.38;;;11.31;64.18
20825;BME280;10573;50.936;6.978;2023-05-16T06:40:51;101598.69;;;10.91;64.32
20825;BME280;10573;50.936;6.978;2023-05-16T06:43:16;101597.75;;;11.13;64.19
20825;BME280;10573;50.936;6.978;2023-05-16T06:45:43;101597.25;;;11.31;63.07
20825;BME280;10573;50.936;6.978;2023-05-16T06:48:08;101591.00;;;10.96;63.65
20825;BME280;10573;50.936;6.978;2023-05-16T06:50:33;101600.19;;;11.39;63.23
20825;BME280;10573;50.936;6.978;2023-05-16T06:52:59;101597.13;;;11.86;62.41
20825;BME280;10573;50.936;6.978;2023-05-16T06:55:25;101602.44;;;12.08;61.58
20825;BME280;10573;50.936;6.978;2023-05-16T06:57:50;101596.56;;;11.92;61.20
20825;BME280;10573;50.936;6.978;2023-05-16T07:00:15;101599.38;;;12.54;59.80
20825;BME280;10573;50.936;6.978;2023-05-16T07:02:41;101592.28;;;12.41;59.11
20825;BME280;10573;50.936;6.978;2023-05-16T07:05:06;101591.13;;;12.34;58.11
20825;BME280;10573;50.936;6.978;2023-05-16T07:07:32;101601.97;;;12.24;57.87
20825;BME280;10573;50.936;6.978;2023-05-16T07:09:57;101599.78;;;12.39;57.18
20825;BME280;10573;50.936;6.978;2023-05-16T07:12:22;101607.75;;;12.31;57.61
20825;BME280;10573;50.936;6.978;2023-05-16T07:14:48;101604.81;;;12.85;56.51
20825;BME280;10573;50.936;6.978;2023-05-16T07:17:13;101606.03;;;13.02;56.56
20825;BME280;10573;50.936;6.978;2023-05-16T07:19:39;101609.31;;;12.96;56.11
20825;BME280;10573;50.936;6.978;2023-05-16T07:22:04;101605.88;;;13.03;55.15
20825;BME280;10573;50.936;6.978;2023-05-16T07:24:30;101606.94;;;13.12;56.94
20825;BME280;10573;50.936;6.978;2023-05-16T07:26:55;101598.47;;;13.35;54.53
20825;BME280;10573;50.936;6.978;2023-05-16T07:29:20;101602.31;;;13.13;54.92
20825;BME280;10573;50.936;6.978;2023-05-16T07:31:46;101608.69;;;12.72;54.86
20825;BME280;10573;50.936;6.978;2023-05-16T07:34:11;101610.16;;;12.46;55.15
20825;BME280;10573;50.936;6.978;2023-05-16T07:36:37;101610.78;;;12.59;54.77
20825;BME280;10573;50.936;6.978;2023-05-16T07:39:02;101617.53;;;12.96;54.17
20825;BME280;10573;50.936;6.978;2023-05-16T07:41:28;101619.66;;;13.42;54.19
20825;BME280;10573;50.936;6.978;2023-05-16T07:43:53;101618.81;;;13.62;52.65
20825;BME280;10573;50.936;6.978;2023-05-16T07:46:19;101613.25;;;13.13;51.57
20825;BME280;10573;50.936;6.978;2023-05-16T07:48:44;101615.53;;;13.07;51.48
20825;BME280;10573;50.936;6.978;2023-05-16T07:51:09;101615.84;;;13.24;51.09
20825;BME280;10573;50.936;6.978;2023-05-16T07:53:34;101620.19;;;13.17;50.90
20825;BME280;10573;50.936;6.978;2023-05-16T07:56:00;101612.75;;;13.68;51.40
20825;BME280;10573;50.936;6.978;2023-05-16T07:58:25;101609.16;;;13.97;50.25
20825;BME280;10573;50.936;6.978;2023-05-16T08:00:51;101619.97;;;13.98;50.24
20825;BME280;10573;50.936;6.978;2023-05-16T08:03:16;101605.44;;;14.35;49.54
20825;BME280;10573;50.936;6.978;2023-05-16T08:05:41;101610.09;;;14.15;48.92
20825;BME280;10573;50.936;6.978;2023-05-16T08:08:07;101613.41;;;14.76;48.75
20825;BME280;10573;50.936;6.978;2023-05-16T08:10:32;101609.47;;;14.31;48.27
20825;BME280;10573;50.936;6.978;2023-05-16T08:12:58;101620.03;;;14.26;48.40
20825;BME280;10573;50.936;6.978;2023-05-16T08:15:23;101616.38;;;13.78;48.54
20825;BME280;10573;50.936;6.978;2023-05-16T08:17:49;101610.16;;;14.43;47.69
20825;BME280;10573;50.936;6.978;2023-05-16T08:20:15;101617.38;;;13.67;48.11
20825;BME280;10573;50.936;6.978;2023-05-16T08:22:40;101618.09;;;13.50;47.33
20825;BME280;10573;50.936;6.978;2023-05-16T08:25:06;101611.25;;;13.15;47.84
20825;BME280;10573;50.936;6.978;2023-05-16T08:27:31;101625.50;;;13.08;48.89
20825;BME280;10573;50.936;6.978;2023-05-16T08:29:57;101614.31;;;13.31;48.62
20825;BME280;10573;50.936;6.978;2023-05-16T08:32:22;101625.72;;;13.56;49.04
20825;BME280;10573;50.936;6.978;2023-05-16T08:34:47;101619.78;;;14.09;48.80
20825;BME280;10573;50.936;6.978;2023-05-16T08:37:13;101623.69;;;13.97;48.84
20825;BME280;10573;50.936;6.978;2023-05-16T08:39:38;101627.97;;;14.29;48.23
20825;BME280;10573;50.936;6.978;2023-05-16T08:42:04;101617.03;;;14.09;48.09
20825;BME280;10573;50.936;6.978;2023-05-16T08:44:30;101613.59;;;14.07;48.42
20825;BME280;10573;50.936;6.978;2023-05-16T08:46:55;101619.91;;;14.18;48.12
20825;BME280;10573;50.936;6.978;2023-05-16T08:49:21;101626.59;;;13.76;49.04
20825;BME280;10573;50.936;6.978;2023-05-16T08:51:47;101623.63;;;14.36;46.47
20825;BME280;10573;50.936;6.978;2023-05-16T08:54:13;101613.66;;;14.35;46.88
20825;BME280;10573;50.936;6.978;2023-05-16T08:56:42;101620.19;;;15.46;45.03
20825;BME280;10573;50.936;6.978;2023-05-16T08:59:08;101614.50;;;14.83;45.49
20825;BME280;10573;50.936;6.978;2023-05-16T09:01:34;101609.38;;;14.98;45.50
20825;BME280;10573;50.936;6.978;2023-05-16T09:04:00;101609.34;;;14.80;45.78
20825;BME280;10573;50.936;6.978;2023-05-16T09:06:26;101604.72;;;14.81;45.15
20825;BME280;10573;50.936;6.978;2023-05-16T09:08:52;101608.81;;;15.40;44.68
20825;BME280;10573;50.936;6.978;2023-05-16T09:11:17;101603.97;;;15.06;44.73
20825;BME280;10573;50.936;6.978;2023-05-16T09:13:43;101601.78;;;14.92;43.59
20825;BME280;10573;50.936;6.978;2023-05-16T09:18:34;101585.28;;;16.53;40.26
20825;BME280;10573;50.936;6.978;2023-05-16T09:21:00;101582.13;;;17.17;39.56
20825;BME280;10573;50.936;6.978;2023-05-16T09:23:25;101588.31;;;17.19;39.35
20825;BME280;10573;50.936;6.978;2023-05-16T09:25:54;101595.19;;;17.15;38.97
20825;BME280;10573;50.936;6.978;2023-05-16T09:28:19;101586.00;;;17.40;37.43
20825;BME280;10573;50.936;6.978;2023-05-16T09:30:45;101593.16;;;17.17;37.51
20825;BME280;10573;50.936;6.978;2023-05-16T09:33:11;101577.72;;;17.49;37.73
20825;BME280;10573;50.936;6.978;2023-05-16T09:35:36;101579.56;;;18.39;36.38
20825;BME280;10573;50.936;6.978;2023-05-16T09:38:01;101590.41;;;17.25;38.35
20825;BME280;10573;50.936;6.978;2023-05-16T09:40:27;101591.81;;;17.29;37.83
20825;BME280;10573;50.936;6.978;2023-05-16T09:43:02;101587.25;;;16.60;39.07
20825;BME280;10573;50.936;6.978;2023-05-16T09:45:29;101583.06;;;16.48;39.82
20825;BME280;10573;50.936;6.978;2023-05-16T09:47:57;101589.00;;;17.04;39.37
20825;BME280;10573;50.936;6.978;2023-05-16T09:50:22;101591.47;;;18.31;37.41
20825;BME280;10573;50.936;6.978;2023-05-16T09:52:48;101578.19;;;19.45;35.81
20825;BME280;10573;50.936;6.978;2023-05-16T09:55:14;101579.78;;;19.17;33.83
20825;BME280;10573;50.936;6.978;2023-05-16T09:57:40;101581.94;;;18.98;34.16
20825;BME280;10573;50.936;6.978;2023-05-16T10:00:06;101596.66;;;17.52;37.08
20825;BME280;10573;50.936;6.978;2023-05-16T10:02:34;101600.13;;;17.87;36.92
20825;BME280;10573;50.936;6.978;2023-05-16T10:05:00;101592.56;;;16.62;38.27
20825;BME280;10573;50.936;6.978;2023-05-16T10:07:26;101594.47;;;16.96;38.30
20825;BME280;10573;50.936;6.978;2023-05-16T10:09:52;101587.00;;;17.39;37.70
20825;BME280;10573;50.936;6.978;2023-05-16T10:12:18;101589.66;;;16.98;37.67
20825;BME280;10573;50.936;6.978;2023-05-16T10:14:45;101585.47;;;17.37;37.52
20825;BME280;10573;50.936;6.978;2023-05-16T10:17:11;101571.84;;;18.18;34.82
20825;BME280;10573;50.936;6.978;2023-05-16T10:19:38;101587.69;;;17.50;37.15
20825;BME280;10573;50.936;6.978;2023-05-16T10:22:04;101592.53;;;17.56;37.21
20825;BME280;10573;50.936;6.978;2023-05-16T10:24:45;101583.56;;;18.28;35.48
20825;BME280;10573;50.936;6.978;2023-05-16T10:27:12;101574.59;;;17.35;35.05
20825;BME280;10573;50.936;6.978;2023-05-16T10:29:39;101589.78;;;17.72;34.89
20825;BME280;10573;50.936;6.978;2023-05-16T10:32:04;101581.50;;;17.39;35.14
20825;BME280;10573;50.936;6.978;2023-05-16T10:34:30;101581.34;;;18.71;34.19
20825;BME280;10573;50.936;6.978;2023-05-16T10:36:56;101579.41;;;18.88;33.41
20825;BME280;10573;50.936;6.978;2023-05-16T10:39:22;101566.31;;;18.26;33.24
20825;BME280;10573;50.936;6.978;2023-05-16T10:41:48;101572.13;;;18.39;33.16
20825;BME280;10573;50.936;6.978;2023-05-16T10:44:13;101570.63;;;18.28;33.76
20825;BME280;10573;50.936;6.978;2023-05-16T10:46:41;101569.50;;;19.57;32.22
20825;BME280;10573;50.936;6.978;2023-05-16T10:49:40;101548.84;;;20.21;31.26
20825;BME280;10573;50.936;6.978;2023-05-16T10:52:09;101561.34;;;19.78;31.01
20825;BME280;10573;50.936;6.978;2023-05-16T10:54:56;101554.88;;;20.39;30.10
20825;BME280;10573;50.936;6.978;2023-05-16T10:57:22;101551.50;;;19.99;30.14
20825;BME280;10573;50.936;6.978;2023-05-16T10:59:49;101563.53;;;19.22;30.63
20825;BME280;10573;50.936;6.978;2023-05-16T11:02:23;101560.00;;;18.57;31.97
20825;BME280;10573;50.936;6.978;2023-05-16T11:04:50;101569.53;;;19.25;31.82
20825;BME280;10573;50.936;6.978;2023-05-16T11:07:18;101576.28;;;17.11;35.01
20825;BME280;10573;50.936;6.978;2023-05-16T11:09:43;101584.03;;;16.73;36.13
20825;BME280;10573;50.936;6.978;2023-05-16T11:12:09;101582.97;;;16.66;36.68
20825;BME280;10573;50.936;6.978;2023-05-16T11:14:41;101586.34;;;17.78;35.24
20825;BME280;10573;50.936;6.978;2023-05-16T11:17:22;101569.94;;;19.14;32.05
20825;BME280;10573;50.936;6.978;2023-05-16T11:19:50;101575.94;;;18.38;33.42
20825;BME280;10573;50.936;6.978;2023-05-16T11:24:58;101581.28;;;19.51;31.33
20825;BME280;10573;50.936;6.978;2023-05-16T11:27:29;101570.44;;;19.87;32.04
20825;BME280;10573;50.936;6.978;2023-05-16T11:30:10;101568.59;;;18.70;33.19
20825;BME280;10573;50.936;6.978;2023-05-16T11:32:43;101562.22;;;20.02;32.19
20825;BME280;10573;50.936;6.978;2023-05-16T11:35:11;101571.72;;;19.76;33.15
20825;BME280;10573;50.936;6.978;2023-05-16T11:37:36;101587.00;;;18.22;35.61
20825;BME280;10573;50.936;6.978;2023-05-16T11:40:05;101587.03;;;17.89;35.14
20825;BME280;10573;50.936;6.978;2023-05-16T11:42:43;101592.28;;;16.73;36.65
20825;BME280;10573;50.936;6.978;2023-05-16T11:45:18;101604.56;;;16.53;38.16
20825;BME280;10573;50.936;6.978;2023-05-16T11:47:45;101602.25;;;15.87;37.89
20825;BME280;10573;50.936;6.978;2023-05-16T11:50:13;101620.19;;;15.46;40.30
20825;BME280;10573;50.936;6.978;2023-05-16T11:52:41;101615.09;;;15.51;40.13
20825;BME280;10573;50.936;6.978;2023-05-16T11:55:08;101615.03;;;16.23;38.91
20825;BME280;10573;50.936;6.978;2023-05-16T11:57:40;101610.94;;;16.27;39.35
20825;BME280;10573;50.936;6.978;2023-05-16T12:00:17;101604.31;;;16.38;39.41
20825;BME280;10573;50.936;6.978;2023-05-16T12:02:44;101599.19;;;17.20;38.00
20825;BME280;10573;50.936;6.978;2023-05-16T12:05:12;101599.41;;;18.42;36.61
20825;BME280;10573;50.936;6.978;2023-05-16T12:07:37;101589.66;;;18.63;35.99
20825;BME280;10573;50.936;6.978;2023-05-16T12:10:07;101574.56;;;21.26;32.49
20825;BME280;10573;50.936;6.978;2023-05-16T12:12:33;101578.47;;;20.35;33.65
20825;BME280;10573;50.936;6.978;2023-05-16T12:15:00;101579.50;;;20.34;33.10
20825;BME280;10573;50.936;6.978;2023-05-16T12:17:26;101573.97;;;20.94;31.97
20825;BME280;10573;50.936;6.978;2023-05-16T12:19:52;101567.75;;;20.62;31.82
20825;BME280;10573;50.936;6.978;2023-05-16T12:22:18;101591.97;;;19.77;33.09
20825;BME280;10573;50.936;6.978;2023-05-16T12:24:44;101569.94;;;20.67;32.48
20825;BME280;10573;50.936;6.978;2023-05-16T12:27:10;101576.19;;;22.07;31.01
20825;BME280;10573;50.936;6.978;2023-05-16T12:29:36;101554.47;;;22.10;29.06
20825;BME280;10573;50.936;6.978;2023-05-16T12:32:02;101560.19;;;22.72;28.27
20825;BME280;10573;50.936;6.978;2023-05-16T12:34:29;101576.81;;;21.01;30.45
20825;BME280;10573;50.936;6.978;2023-05-16T12:36:54;101581.25;;;19.74;31.48
20825;BME280;10573;50.936;6.978;2023-05-16T12:39:20;101575.50;;;19.37;32.67
20825;BME280;10573;50.936;6.978;2023-05-16T12:41:47;101571.59;;;21.27;30.43
20825;BME280;10573;50.936;6.978;2023-05-16T12:44:13;101576.47;;;19.91;31.18
20825;BME280;10573;50.936;6.978;2023-05-16T12:46:44;101566.06;;;20.91;29.91
20825;BME280;10573;50.936;6.978;2023-05-16T12:49:11;101569.97;;;21.76;29.25
20825;BME280;10573;50.936;6.978;2023-05-16T12:51:37;101567.78;;;21.28;30.32
20825;BME280;10573;50.936;6.978;2023-05-16T12:54:10;101577.66;;;18.39;34.61
20825;BME280;10573;50.936;6.978;2023-05-16T12:56:42;101593.22;;;17.66;35.97
20825;BME280;10573;50.936;6.978;2023-05-16T12:59:08;101598.75;;;17.66;37.36